createdAt,value
2023-04-21T00:01:27.297Z,2.30
2023-04-21T00:04:49.877Z,1.88
2023-04-21T00:08:12.522Z,2.20
2023-04-21T00:11:34.792Z,1.90
2023-04-21T00:14:56.990Z,2.10
2023-04-21T00:18:19.200Z,2.45
2023-04-21T00:21:41.492Z,1.95
2023-04-21T00:25:03.953Z,1.73
2023-04-21T00:28:26.145Z,1.70
2023-04-21T00:31:50.937Z,1.70
2023-04-21T00:35:13.372Z,2.05
2023-04-21T00:38:35.667Z,2.10
2023-04-21T00:41:57.964Z,1.95
2023-04-21T00:45:20.236Z,1.77
2023-04-21T00:48:42.465Z,1.60
2023-04-21T00:52:06.334Z,1.55
2023-04-21T00:55:31.224Z,1.73
2023-04-21T00:58:54.719Z,1.75
2023-04-21T01:02:17.848Z,1.90
2023-04-21T01:05:40.625Z,2.22
2023-04-21T01:09:04.813Z,2.28
2023-04-21T01:12:27.086Z,2.13
2023-04-21T01:15:49.769Z,2.05
2023-04-21T01:19:12.685Z,1.77
2023-04-21T01:22:38.798Z,1.88
2023-04-21T01:26:01.146Z,1.85
2023-04-21T01:29:23.398Z,2.50
2023-04-21T01:32:45.768Z,2.03
2023-04-21T01:36:09.178Z,1.92
2023-04-21T01:39:31.707Z,2.33
2023-04-21T01:42:54.087Z,2.10
2023-04-21T01:46:20.576Z,2.20
2023-04-21T01:49:42.929Z,2.08
2023-04-21T01:53:05.542Z,2.17
2023-04-21T01:56:27.911Z,2.03
2023-04-21T01:59:50.244Z,1.90
2023-04-21T02:03:12.652Z,2.05
2023-04-21T02:06:35.036Z,2.00
2023-04-21T02:09:57.243Z,2.20
2023-04-21T02:13:19.472Z,2.25
2023-04-21T02:16:41.748Z,2.10
2023-04-21T02:20:04.525Z,2.63
2023-04-21T02:23:26.753Z,2.10
2023-04-21T02:26:50.321Z,2.15
2023-04-21T02:30:12.616Z,2.13
2023-04-21T02:33:37.469Z,1.98
2023-04-21T02:36:59.852Z,2.45
2023-04-21T02:40:22.109Z,2.33
2023-04-21T02:43:44.325Z,2.88
2023-04-21T02:47:06.585Z,2.28
2023-04-21T02:50:28.986Z,2.25
2023-04-21T02:53:51.302Z,2.13
2023-04-21T02:57:13.643Z,2.33
2023-04-21T03:00:36.103Z,1.80
2023-04-21T03:03:58.454Z,1.48
2023-04-21T03:07:20.844Z,1.38
2023-04-21T03:10:43.100Z,1.38
2023-04-21T03:14:05.328Z,1.20
2023-04-21T03:17:30.473Z,1.20
2023-04-21T03:21:00.574Z,1.15
2023-04-21T03:24:23.068Z,1.45
2023-04-21T03:27:45.613Z,1.20
2023-04-21T03:31:07.859Z,1.10
2023-04-21T03:34:30.056Z,1.10
2023-04-21T03:37:54.320Z,1.40
2023-04-21T03:41:16.554Z,1.10
2023-04-21T03:44:38.870Z,1.13
2023-04-21T03:48:01.202Z,1.13
2023-04-21T03:51:23.543Z,1.13
2023-04-21T03:54:45.903Z,1.20
2023-04-21T03:58:08.228Z,1.40
2023-04-21T04:01:30.458Z,1.02
2023-04-21T04:04:52.709Z,1.20
2023-04-21T04:08:15.047Z,1.23
2023-04-21T04:11:37.308Z,1.23
2023-04-21T04:15:01.264Z,0.85
2023-04-21T04:18:23.525Z,1.13
2023-04-21T04:21:47.521Z,1.20
2023-04-21T04:25:13.021Z,1.02
2023-04-21T04:28:35.567Z,1.17
2023-04-21T04:31:58.564Z,1.40
2023-04-21T04:35:20.947Z,1.27
2023-04-21T04:38:43.326Z,1.15
2023-04-21T04:42:11.798Z,0.90
2023-04-21T04:45:34.056Z,1.08
2023-04-21T04:48:56.259Z,1.08
2023-04-21T04:52:18.478Z,1.30
2023-04-21T04:55:40.655Z,1.17
2023-04-21T04:59:02.985Z,1.10
2023-04-21T05:02:25.770Z,1.13
2023-04-21T05:05:48.301Z,1.20
2023-04-21T05:09:10.509Z,1.10
2023-04-21T05:12:32.727Z,1.33
2023-04-21T05:15:59.588Z,1.23
2023-04-21T05:19:21.837Z,1.10
2023-04-21T05:22:44.071Z,1.00
2023-04-21T05:26:06.263Z,1.00
2023-04-21T05:29:28.718Z,1.10
2023-04-21T05:32:51.059Z,1.20
2023-04-21T05:36:13.327Z,1.10
2023-04-21T05:39:35.582Z,1.30
2023-04-21T05:42:57.742Z,1.10
2023-04-21T05:46:19.960Z,0.90
2023-04-21T05:49:44.178Z,1.50
2023-04-21T05:53:06.445Z,1.67
2023-04-21T05:56:28.778Z,1.40
2023-04-21T05:59:51.115Z,1.30
2023-04-21T06:03:13.500Z,1.50
2023-04-21T06:06:35.988Z,1.33
2023-04-21T06:09:58.421Z,1.48
2023-04-21T06:13:20.724Z,1.27
2023-04-21T06:16:42.984Z,1.23
2023-04-21T06:20:05.920Z,0.95
2023-04-21T06:23:28.156Z,1.33
2023-04-21T06:26:50.845Z,1.02
2023-04-21T06:30:13.491Z,1.20
2023-04-21T06:33:35.843Z,1.20
2023-04-21T06:36:58.080Z,0.80
2023-04-21T06:40:20.374Z,5.05
2023-04-21T06:43:42.630Z,4.53
2023-04-21T06:47:04.965Z,4.00
2023-04-21T06:50:27.517Z,4.43
2023-04-21T06:53:50.098Z,4.45
2023-04-21T06:57:12.430Z,4.30
2023-04-21T07:00:34.766Z,3.33
2023-04-21T07:03:57.135Z,3.67
2023-04-21T07:07:19.488Z,2.88
2023-04-21T07:10:41.868Z,3.40
2023-04-21T07:14:04.273Z,3.17
2023-04-21T07:17:26.567Z,3.40
2023-04-21T07:20:48.834Z,3.20
2023-04-21T07:24:11.057Z,3.13
2023-04-21T07:27:34.728Z,3.35
2023-04-21T07:30:57.110Z,3.83
2023-04-21T07:34:19.390Z,3.42
2023-04-21T07:37:41.688Z,3.45
2023-04-21T07:41:04.287Z,2.88
2023-04-21T07:44:26.541Z,2.90
2023-04-21T07:47:48.947Z,3.08
2023-04-21T07:51:11.388Z,3.03
2023-04-21T07:54:33.692Z,2.28
2023-04-21T07:57:56.053Z,2.63
2023-04-21T08:01:18.402Z,2.92
2023-04-21T08:04:40.757Z,2.50
2023-04-21T08:08:03.196Z,2.88
2023-04-21T08:11:25.708Z,2.47
2023-04-21T08:14:48.835Z,2.22
2023-04-21T08:18:11.491Z,2.38
2023-04-21T08:21:34.069Z,2.50
2023-04-21T08:24:56.528Z,2.47
2023-04-21T08:28:18.776Z,2.10
2023-04-21T08:31:41.274Z,2.63
2023-04-21T08:35:03.788Z,2.50
2023-04-21T08:38:26.159Z,2.13
2023-04-21T08:41:49.767Z,2.60
2023-04-21T08:45:12.172Z,2.67
2023-04-21T08:48:38.596Z,2.08
2023-04-21T08:52:01.083Z,1.85
2023-04-21T08:55:29.138Z,2.20
2023-04-21T08:58:51.374Z,2.10
2023-04-21T09:02:18.024Z,2.38
2023-04-21T09:05:43.196Z,2.20
2023-04-21T09:12:29.179Z,2.15
2023-04-21T09:15:54.838Z,2.08
2023-04-21T09:19:17.288Z,2.08
2023-04-21T09:22:39.645Z,2.10
2023-04-21T09:26:03.876Z,1.80
2023-04-21T09:29:26.599Z,1.90
2023-04-21T09:32:49.782Z,2.35
2023-04-21T09:36:22.108Z,2.00
2023-04-21T09:40:03.574Z,1.58
2023-04-21T09:43:26.974Z,1.80
2023-04-21T09:47:03.598Z,1.85
2023-04-21T09:51:01.835Z,2.00
2023-04-21T09:57:50.697Z,1.98
2023-04-21T10:01:14.158Z,1.77
2023-04-21T10:04:38.636Z,1.88
2023-04-21T10:08:01.714Z,2.03
2023-04-21T10:11:24.403Z,1.77
2023-04-21T10:14:50.203Z,1.77
2023-04-21T10:18:19.706Z,1.90
2023-04-21T10:21:41.990Z,1.70
2023-04-21T10:25:08.949Z,1.60
2023-04-21T10:28:44.570Z,1.45
2023-04-21T10:32:09.141Z,1.52
2023-04-21T10:35:59.955Z,1.90
2023-04-21T10:39:29.466Z,1.60
2023-04-21T10:42:51.823Z,1.50
2023-04-21T10:46:37.048Z,1.65
2023-04-21T10:50:00.593Z,2.10
2023-04-21T10:53:25.802Z,1.35
2023-04-21T10:56:51.498Z,1.77
2023-04-21T11:00:23.050Z,1.70
2023-04-21T11:03:45.891Z,1.80
2023-04-21T11:07:13.737Z,1.73
2023-04-21T11:10:55.628Z,1.77
2023-04-21T11:14:18.204Z,1.65
2023-04-21T11:17:43.407Z,1.80
2023-04-21T11:27:56.412Z,2.00
2023-04-21T11:31:18.797Z,1.67
2023-04-21T11:34:41.851Z,1.92
2023-04-21T11:38:07.071Z,1.88
2023-04-21T11:41:29.389Z,1.63
2023-04-21T11:44:55.762Z,1.75
2023-04-21T11:48:19.636Z,2.08
2023-04-21T11:51:43.658Z,3.28
2023-04-21T11:55:18.709Z,2.90
2023-04-21T11:58:40.984Z,2.50
2023-04-21T12:02:03.320Z,2.20
2023-04-21T12:05:25.832Z,2.00
2023-04-21T12:08:49.489Z,2.13
2023-04-21T12:12:11.656Z,2.38
2023-04-21T12:15:33.968Z,1.75
2023-04-21T12:18:57.708Z,1.92
2023-04-21T12:22:20.263Z,2.00
2023-04-21T12:25:42.533Z,2.00
2023-04-21T12:29:04.883Z,1.88
2023-04-21T12:32:27.293Z,1.90
2023-04-21T12:35:49.817Z,2.53
2023-04-21T12:39:13.393Z,2.25
2023-04-21T12:42:37.812Z,1.88
2023-04-21T12:46:00.692Z,1.58
2023-04-21T12:49:23.243Z,1.80
2023-04-21T12:52:45.738Z,2.10
2023-04-21T12:56:07.984Z,1.95
2023-04-21T12:59:30.516Z,2.03
2023-04-21T13:02:53.094Z,1.75
2023-04-21T13:06:15.580Z,2.08
2023-04-21T13:09:38.437Z,2.00
2023-04-21T13:13:00.678Z,1.60
2023-04-21T13:16:23.229Z,3.20
2023-04-21T13:19:45.641Z,2.30
2023-04-21T13:23:08.827Z,2.03
2023-04-21T13:26:33.713Z,1.83
2023-04-21T13:29:57.603Z,1.92
2023-04-21T13:33:20.344Z,1.65
2023-04-21T13:36:42.702Z,1.85
2023-04-21T13:40:09.332Z,1.55
2023-04-21T13:43:31.661Z,1.60
2023-04-21T13:46:54.503Z,1.80
2023-04-21T13:50:16.837Z,1.70
2023-04-21T13:53:39.082Z,1.58
2023-04-21T13:57:02.035Z,1.58
2023-04-21T14:00:24.405Z,1.67
2023-04-21T14:03:46.833Z,1.40
2023-04-21T14:07:09.364Z,1.60
2023-04-21T14:10:31.660Z,1.70
2023-04-21T14:14:08.394Z,1.63
2023-04-21T14:17:32.335Z,1.70
2023-04-21T14:20:54.615Z,1.63
2023-04-21T14:24:16.921Z,1.30
2023-04-21T14:27:39.279Z,1.27
2023-04-21T14:31:01.902Z,1.60
2023-04-21T14:34:27.313Z,1.30
2023-04-21T14:37:49.726Z,1.40
2023-04-21T14:41:12.442Z,1.30
2023-04-21T14:44:35.777Z,1.20
2023-04-21T14:47:58.462Z,1.65
2023-04-21T14:51:21.657Z,1.40
2023-04-21T14:54:44.051Z,1.40
2023-04-21T14:58:06.390Z,1.67
2023-04-21T15:01:28.826Z,1.35
2023-04-21T15:04:51.242Z,1.30
2023-04-21T15:08:18.001Z,1.40
2023-04-21T15:11:40.310Z,1.45
2023-04-21T15:15:02.681Z,1.63
2023-04-21T15:18:24.991Z,2.80
2023-04-21T15:21:47.358Z,3.03
2023-04-21T15:25:09.943Z,2.85
2023-04-21T15:28:33.513Z,3.10
2023-04-21T15:31:56.055Z,2.78
2023-04-21T15:35:18.390Z,3.17
2023-04-21T15:38:40.981Z,3.15
2023-04-21T15:42:04.395Z,2.92
2023-04-21T15:45:26.808Z,2.67
2023-04-21T15:48:49.054Z,2.80
2023-04-21T15:52:11.829Z,3.05
2023-04-21T15:55:34.768Z,2.97
2023-04-21T15:58:57.209Z,2.85
2023-04-21T16:02:20.723Z,2.72
2023-04-21T16:05:43.482Z,2.42
2023-04-21T16:09:05.809Z,2.72
2023-04-21T16:12:28.269Z,2.53
2023-04-21T16:15:50.670Z,2.90
2023-04-21T16:19:13.190Z,2.60
2023-04-21T16:22:35.914Z,2.70
2023-04-21T16:25:58.402Z,2.35
2023-04-21T16:29:20.747Z,2.97
2023-04-21T16:32:43.068Z,2.17
2023-04-21T16:36:05.693Z,2.47
2023-04-21T16:39:28.027Z,2.50
2023-04-21T16:42:50.393Z,2.65
2023-04-21T16:46:12.811Z,2.40
2023-04-21T16:49:35.159Z,2.17
2023-04-21T16:52:57.437Z,2.47
2023-04-21T16:56:20.338Z,2.55
2023-04-21T16:59:42.738Z,2.20
2023-04-21T17:03:05.142Z,2.28
2023-04-21T17:06:27.531Z,2.60
2023-04-21T17:09:51.221Z,2.10
2023-04-21T17:13:13.523Z,2.05
2023-04-21T17:16:36.351Z,2.65
2023-04-21T17:19:58.733Z,2.03
2023-04-21T17:23:00.790Z,2.30
2023-04-21T17:26:05.131Z,2.17
2023-04-21T17:29:26.985Z,2.10
2023-04-21T17:32:51.601Z,2.28
2023-04-21T17:36:17.513Z,2.33
2023-04-21T17:39:39.862Z,2.38
2023-04-21T17:43:02.189Z,2.00
2023-04-21T17:46:25.498Z,1.75
2023-04-21T17:49:48.030Z,2.15
2023-04-21T17:53:10.720Z,2.10
2023-04-21T17:56:33.041Z,1.73
2023-04-21T17:59:55.323Z,1.55
2023-04-21T18:03:18.020Z,1.50
2023-04-21T18:06:40.698Z,1.50
2023-04-21T18:10:02.963Z,1.58
2023-04-21T18:13:25.316Z,1.80
2023-04-21T18:16:47.644Z,3.03
2023-04-21T18:20:12.315Z,5.60
2023-04-21T18:23:34.814Z,7.70
2023-04-21T18:26:57.229Z,9.23
2023-04-21T18:30:19.494Z,10.48
2023-04-21T18:33:41.766Z,9.32
2023-04-21T18:37:04.087Z,8.00
2023-04-21T18:40:26.338Z,9.40
2023-04-21T18:43:48.645Z,9.20
2023-04-21T18:47:12.099Z,7.85
2023-04-21T18:50:39.375Z,8.30
2023-04-21T18:54:01.781Z,7.93
2023-04-21T18:57:24.017Z,7.18
2023-04-21T19:00:46.325Z,7.07
2023-04-21T19:04:11.409Z,6.30
2023-04-21T19:10:56.530Z,6.47
2023-04-21T19:14:18.777Z,5.25
2023-04-21T19:17:41.199Z,4.55
2023-04-21T19:21:04.653Z,5.07
2023-04-21T19:24:26.934Z,4.72
2023-04-21T19:27:49.257Z,4.82
2023-04-21T19:31:11.633Z,5.05
2023-04-21T19:34:34.088Z,4.75
2023-04-21T19:37:56.392Z,4.90
2023-04-21T19:41:18.680Z,4.82
2023-04-21T19:44:41.014Z,4.18
2023-04-21T19:48:04.507Z,4.43
2023-04-21T19:51:27.881Z,4.82
2023-04-21T19:54:50.491Z,4.65
2023-04-21T19:58:13.215Z,4.28
2023-04-21T20:01:37.188Z,4.80
2023-04-21T20:04:59.611Z,4.78
2023-04-21T20:08:22.779Z,4.15
2023-04-21T20:11:45.142Z,4.20
2023-04-21T20:15:08.334Z,3.92
2023-04-21T20:18:31.869Z,5.15
2023-04-21T20:21:54.146Z,4.38
2023-04-21T20:25:16.515Z,4.13
2023-04-21T20:28:38.812Z,4.53
2023-04-21T20:32:04.200Z,3.90
2023-04-21T20:35:26.700Z,4.07
2023-04-21T20:38:50.531Z,3.65
2023-04-21T20:42:14.027Z,3.28
2023-04-21T20:45:36.444Z,3.22
2023-04-21T20:48:58.836Z,3.60
2023-04-21T20:52:21.399Z,3.30
2023-04-21T20:55:43.861Z,3.33
2023-04-21T20:59:06.359Z,2.97
2023-04-21T21:02:28.626Z,3.00
2023-04-21T21:05:51.228Z,3.17
2023-04-21T21:09:13.507Z,3.45
2023-04-21T21:12:35.796Z,3.80
2023-04-21T21:15:58.110Z,3.05
2023-04-21T21:19:20.499Z,2.80
2023-04-21T21:22:43.258Z,3.10
2023-04-21T21:26:05.850Z,3.20
2023-04-21T21:29:29.260Z,2.72
2023-04-21T21:32:52.780Z,2.55
2023-04-21T21:36:15.129Z,2.72
2023-04-21T21:39:37.706Z,2.95
2023-04-21T21:43:00.457Z,2.90
2023-04-21T21:46:22.866Z,2.88
2023-04-21T21:49:45.467Z,2.67
2023-04-21T21:53:07.928Z,2.67
2023-04-21T21:56:30.335Z,2.60
2023-04-21T21:59:52.930Z,2.80
2023-04-21T22:03:15.257Z,2.47
2023-04-21T22:06:38.179Z,2.28
2023-04-21T22:10:00.484Z,2.35
2023-04-21T22:13:22.800Z,2.10
2023-04-21T22:16:46.165Z,2.30
2023-04-21T22:20:08.836Z,2.58
2023-04-21T22:23:31.999Z,2.58
2023-04-21T22:26:54.254Z,2.35
2023-04-21T22:30:16.539Z,2.10
2023-04-21T22:33:38.764Z,2.50
2023-04-21T22:37:02.240Z,2.20
2023-04-21T22:40:24.580Z,2.10
2023-04-21T22:43:47.515Z,2.30
2023-04-21T22:47:10.722Z,2.60
2023-04-21T22:50:34.520Z,2.70
2023-04-21T22:53:56.885Z,2.10
2023-04-21T22:57:19.216Z,2.30
2023-04-21T23:00:41.924Z,2.30
2023-04-21T23:04:04.416Z,1.90
2023-04-21T23:07:26.843Z,1.55
2023-04-21T23:10:49.188Z,1.98
2023-04-21T23:14:11.583Z,2.30
2023-04-21T23:17:34.007Z,1.90
2023-04-21T23:20:56.298Z,2.00
2023-04-21T23:24:18.560Z,1.67
2023-04-21T23:27:41.073Z,1.80
2023-04-21T23:31:03.466Z,1.98
2023-04-21T23:34:25.793Z,2.00
2023-04-21T23:37:48.727Z,2.00
2023-04-21T23:41:11.270Z,1.60
2023-04-21T23:44:33.632Z,1.80
2023-04-21T23:47:55.832Z,1.90
2023-04-21T23:51:19.274Z,1.98
2023-04-21T23:54:41.562Z,1.60
2023-04-21T23:58:03.855Z,1.85
